Time;durP1;ratioP1;P1;durP2;ratioP2;P2;SDS_P1;SDS_P2;PMS_P1;PMS_P2;Temp;Humidity;BMP_temperature;BMP_pressure;BME280_temperature;BME280_humidity;BME280_pressure;Samples;Min_cycle;Max_cycle;Signal;HPM_P1;HPM_P2
2022/05/01 00:01:43;;;;;;;25.60;21.40;;;;;;;;;;5071898;28;20425;-67
2022/05/01 00:04:09;;;;;;;27.00;20.87;;;;;;;;;;5073344;28;20465;-66
2022/05/01 00:06:36;;;;;;;21.53;19.43;;;;;;;;;;5073143;28;20932;-64
2022/05/01 00:09:03;;;;;;;21.70;19.50;;;;;;;;;;5073259;28;20457;-66
2022/05/01 00:11:30;;;;;;;22.23;20.03;;;;;;;;;;5075697;28;20409;-64
2022/05/01 00:13:59;;;;;;;27.30;21.33;;;;;;;;;;5075708;28;20398;-64
2022/05/01 00:16:26;;;;;;;22.43;20.13;;;;;;;;;;5075628;28;20450;-67
2022/05/01 00:18:52;;;;;;;26.13;21.10;;;;;;;;;;5075551;28;20402;-65
2022/05/01 00:21:18;;;;;;;24.43;21.20;;;;;;;;;;5075589;28;20447;-65
2022/05/01 00:23:45;;;;;;;23.73;21.00;;;;;;;;;;5075424;28;20857;-65
2022/05/01 00:26:11;;;;;;;27.40;21.40;;;;;;;;;;5075445;28;20410;-65
2022/05/01 00:28:37;;;;;;;27.23;22.60;;;;;;;;;;5075414;28;20437;-65
2022/05/01 00:31:07;;;;;;;27.57;22.03;;;;;;;;;;5075446;28;20485;-66
2022/05/01 00:36:27;;;;;;;25.73;22.37;;;;;;;;;;5075192;28;20525;-65
2022/05/01 00:38:54;;;;;;;29.33;21.47;;;;;;;;;;5075030;28;20398;-66
2022/05/01 00:41:23;;;;;;;26.37;21.57;;;;;;;;;;5075128;28;20406;-66
2022/05/01 00:44:04;;;;;;;24.83;22.20;;;;;;;;;;5074914;28;20979;-66
2022/05/01 00:46:36;;;;;;;25.27;20.73;;;;;;;;;;5074941;28;20772;-65
2022/05/01 00:49:04;;;;;;;22.67;19.17;;;;;;;;;;5075000;28;20410;-65
2022/05/01 00:51:32;;;;;;;21.97;19.67;;;;;;;;;;5074928;28;20406;-65
2022/05/01 00:53:59;;;;;;;25.50;19.70;;;;;;;;;;5074872;28;20418;-65
2022/05/01 00:56:25;;;;;;;20.93;18.73;;;;;;;;;;5074840;28;20398;-65
2022/05/01 00:58:52;;;;;;;22.17;19.17;;;;;;;;;;5074821;28;20724;-64
2022/05/01 01:01:19;;;;;;;24.73;18.50;;;;;;;;;;5074695;28;20394;-64
2022/05/01 01:03:45;;;;;;;31.80;20.53;;;;;;;;;;5074657;28;20552;-64
2022/05/01 01:06:11;;;;;;;25.93;19.03;;;;;;;;;;5074540;28;20920;-65
2022/05/01 01:08:37;;;;;;;22.90;19.50;;;;;;;;;;5074864;28;20464;-66
2022/05/01 01:11:03;;;;;;;23.00;20.10;;;;;;;;;;5074610;28;20946;-65
2022/05/01 01:13:29;;;;;;;23.50;20.47;;;;;;;;;;5074532;28;20410;-64
2022/05/01 01:15:56;;;;;;;26.80;20.73;;;;;;;;;;5074631;28;20394;-64
2022/05/01 01:18:26;;;;;;;22.33;19.80;;;;;;;;;;5074624;28;20418;-65
2022/05/01 01:20:52;;;;;;;22.07;19.57;;;;;;;;;;5074366;28;20390;-65
2022/05/01 01:23:19;;;;;;;20.97;18.87;;;;;;;;;;5073762;28;20832;-65
2022/05/01 01:25:45;;;;;;;21.70;19.50;;;;;;;;;;5074562;28;20459;-65
2022/05/01 01:28:11;;;;;;;25.77;21.23;;;;;;;;;;5074157;28;20491;-64
2022/05/01 01:33:25;;;;;;;32.37;22.17;;;;;;;;;;5074338;28;20871;-64
2022/05/01 01:35:51;;;;;;;27.73;22.00;;;;;;;;;;5074071;28;20394;-65
2022/05/01 01:38:17;;;;;;;26.87;21.07;;;;;;;;;;5073994;28;20403;-65
2022/05/01 01:40:52;;;;;;;23.90;21.27;;;;;;;;;;5073858;28;20465;-65
2022/05/01 01:43:19;;;;;;;23.07;20.50;;;;;;;;;;5073941;28;20503;-65
2022/05/01 01:45:46;;;;;;;25.77;20.87;;;;;;;;;;5073921;28;20742;-65
2022/05/01 01:48:13;;;;;;;22.30;19.60;;;;;;;;;;5073785;28;20413;-65
2022/05/01 01:50:40;;;;;;;25.17;21.10;;;;;;;;;;5073812;28;20889;-65
2022/05/01 01:53:06;;;;;;;27.93;21.00;;;;;;;;;;5073827;28;20410;-65
2022/05/01 01:55:32;;;;;;;25.90;20.80;;;;;;;;;;5073715;28;20430;-65
2022/05/01 01:57:58;;;;;;;25.07;21.10;;;;;;;;;;5073796;28;20410;-65
2022/05/01 02:00:24;;;;;;;22.03;19.20;;;;;;;;;;5073716;28;20403;-65
2022/05/01 02:02:56;;;;;;;24.97;19.20;;;;;;;;;;5073609;28;21015;-66
2022/05/01 02:05:22;;;;;;;24.67;21.27;;;;;;;;;;5073735;28;20818;-65
2022/05/01 02:07:48;;;;;;;23.20;18.03;;;;;;;;;;5073731;28;20397;-66
2022/05/01 02:10:14;;;;;;;23.57;19.83;;;;;;;;;;5073577;28;20724;-65
2022/05/01 02:12:40;;;;;;;24.23;19.63;;;;;;;;;;5073539;28;20410;-65
2022/05/01 02:15:06;;;;;;;22.33;19.93;;;;;;;;;;5073829;28;20418;-65
2022/05/01 02:17:33;;;;;;;22.20;19.83;;;;;;;;;;5072232;28;20970;-65
2022/05/01 02:19:59;;;;;;;24.07;19.80;;;;;;;;;;5073582;28;20513;-66
2022/05/01 02:22:25;;;;;;;22.07;19.83;;;;;;;;;;5073536;28;20905;-65
2022/05/01 02:24:51;;;;;;;28.43;19.57;;;;;;;;;;5073437;28;20473;-65
2022/05/01 02:27:17;;;;;;;24.90;20.80;;;;;;;;;;5073708;28;20492;-65
2022/05/01 02:29:44;;;;;;;20.33;18.33;;;;;;;;;;5073615;28;20410;-65
2022/05/01 02:32:10;;;;;;;20.97;18.80;;;;;;;;;;5073555;28;20825;-65
2022/05/01 02:34:36;;;;;;;22.00;19.47;;;;;;;;;;5074572;28;20773;-65
2022/05/01 02:37:02;;;;;;;30.03;20.77;;;;;;;;;;5077483;28;20504;-65
2022/05/01 02:39:28;;;;;;;24.70;20.37;;;;;;;;;;5077254;28;20492;-65
2022/05/01 02:41:56;;;;;;;25.30;20.87;;;;;;;;;;5076158;28;20460;-65
2022/05/01 02:44:21;;;;;;;24.83;21.90;;;;;;;;;;5077305;28;20469;-65
2022/05/01 02:46:48;;;;;;;29.10;22.73;;;;;;;;;;5077286;28;20501;-65
2022/05/01 02:49:14;;;;;;;23.30;20.47;;;;;;;;;;5077318;28;20443;-65
2022/05/01 02:51:40;;;;;;;21.17;18.90;;;;;;;;;;5077197;28;20398;-65
2022/05/01 02:54:06;;;;;;;24.37;20.63;;;;;;;;;;5077311;28;20429;-65
2022/05/01 02:56:33;;;;;;;24.10;21.07;;;;;;;;;;5077058;28;20402;-65
2022/05/01 02:59:00;;;;;;;24.60;21.17;;;;;;;;;;5077071;28;20380;-65
2022/05/01 03:01:26;;;;;;;21.30;19.00;;;;;;;;;;5077031;28;20496;-65
2022/05/01 03:03:52;;;;;;;21.27;18.97;;;;;;;;;;5076929;28;20576;-65
2022/05/01 03:06:18;;;;;;;21.70;19.40;;;;;;;;;;5077027;28;20944;-64
2022/05/01 03:08:44;;;;;;;20.80;18.60;;;;;;;;;;5076896;28;20392;-64
2022/05/01 03:11:10;;;;;;;21.77;17.23;;;;;;;;;;5077091;28;20451;-64
2022/05/01 03:13:36;;;;;;;22.80;19.20;;;;;;;;;;5076783;28;20381;-64
2022/05/01 03:16:03;;;;;;;25.63;19.03;;;;;;;;;;5076785;28;20390;-64
2022/05/01 03:23:58;;;;;;;21.37;19.17;;;;;;;;;;5076542;28;20493;-66
2022/05/01 03:26:25;;;;;;;22.10;19.33;;;;;;;;;;5076517;28;20431;-67
2022/05/01 03:28:51;;;;;;;20.83;18.27;;;;;;;;;;5076796;28;20464;-66
2022/05/01 03:31:17;;;;;;;23.97;18.60;;;;;;;;;;5076379;28;20398;-66
2022/05/01 03:33:44;;;;;;;23.43;19.77;;;;;;;;;;5076415;28;20398;-66
2022/05/01 03:36:11;;;;;;;20.33;17.70;;;;;;;;;;5076616;28;20405;-64
2022/05/01 03:38:38;;;;;;;19.83;17.77;;;;;;;;;;5076153;28;20407;-64
2022/05/01 03:41:07;;;;;;;22.23;19.10;;;;;;;;;;5076245;28;20410;-64
2022/05/01 03:43:34;;;;;;;22.60;18.50;;;;;;;;;;5076220;28;20538;-64
2022/05/01 03:46:00;;;;;;;22.20;17.70;;;;;;;;;;5075056;28;20741;-66
2022/05/01 03:48:27;;;;;;;20.13;17.20;;;;;;;;;;5076141;28;20888;-64
2022/05/01 03:50:54;;;;;;;21.43;18.87;;;;;;;;;;5074852;28;20437;-64
2022/05/01 03:53:20;;;;;;;20.40;18.30;;;;;;;;;;5076266;28;20472;-65
2022/05/01 03:55:46;;;;;;;19.13;17.23;;;;;;;;;;5076079;28;20442;-67
2022/05/01 03:58:13;;;;;;;22.10;18.50;;;;;;;;;;5076255;28;20393;-66
2022/05/01 04:00:39;;;;;;;22.30;18.40;;;;;;;;;;5074594;28;20922;-66
2022/05/01 04:03:05;;;;;;;25.77;18.93;;;;;;;;;;5075821;28;20436;-66
2022/05/01 04:05:33;;;;;;;19.67;17.67;;;;;;;;;;5075886;28;20411;-65
2022/05/01 04:07:59;;;;;;;18.83;16.83;;;;;;;;;;5075808;28;20443;-65
2022/05/01 04:10:25;;;;;;;20.40;16.43;;;;;;;;;;5075843;28;20385;-65
2022/05/01 04:12:51;;;;;;;19.10;17.07;;;;;;;;;;5075952;28;20739;-65
2022/05/01 04:15:17;;;;;;;18.90;16.90;;;;;;;;;;5075711;28;20384;-65
2022/05/01 04:17:44;;;;;;;18.60;16.47;;;;;;;;;;5075563;28;20392;-67
2022/05/01 04:20:12;;;;;;;19.00;17.00;;;;;;;;;;5075872;28;20406;-66
2022/05/01 04:22:41;;;;;;;16.80;15.10;;;;;;;;;;5075361;28;20830;-66
2022/05/01 04:25:14;;;;;;;17.47;15.63;;;;;;;;;;5075442;28;20380;-65
2022/05/01 04:27:40;;;;;;;19.37;17.27;;;;;;;;;;5075397;28;20394;-67
2022/05/01 04:30:07;;;;;;;19.47;17.40;;;;;;;;;;5075394;28;20463;-66
2022/05/01 04:32:32;;;;;;;19.30;17.20;;;;;;;;;;5075405;28;20502;-65
2022/05/01 04:34:58;;;;;;;17.80;16.00;;;;;;;;;;5075247;28;20381;-66
2022/05/01 04:37:25;;;;;;;18.17;16.33;;;;;;;;;;5075209;28;20392;-66
2022/05/01 04:39:51;;;;;;;19.37;16.87;;;;;;;;;;5075119;28;20474;-65
2022/05/01 04:42:17;;;;;;;18.50;16.47;;;;;;;;;;5075079;28;20406;-66
2022/05/01 04:44:43;;;;;;;18.93;16.30;;;;;;;;;;5074964;28;20952;-66
2022/05/01 04:47:10;;;;;;;22.30;16.90;;;;;;;;;;5075026;28;20431;-66
2022/05/01 04:49:36;;;;;;;18.47;16.53;;;;;;;;;;5074967;28;20423;-66
2022/05/01 04:52:02;;;;;;;16.90;15.27;;;;;;;;;;5074903;28;20402;-66
2022/05/01 04:54:28;;;;;;;20.47;17.23;;;;;;;;;;5074879;28;20416;-66
2022/05/01 04:57:06;;;;;;;18.03;16.33;;;;;;;;;;5074030;28;20418;-66
2022/05/01 04:59:32;;;;;;;20.40;17.37;;;;;;;;;;5075015;28;20406;-67
2022/05/01 05:01:58;;;;;;;18.40;16.00;;;;;;;;;;5074913;28;20396;-66
2022/05/01 05:04:24;;;;;;;22.63;16.57;;;;;;;;;;5073309;28;20968;-66
2022/05/01 05:06:52;;;;;;;18.43;16.03;;;;;;;;;;5074608;28;20406;-66
2022/05/01 05:12:05;;;;;;;17.47;15.53;;;;;;;;;;5074537;28;20376;-66
2022/05/01 05:14:31;;;;;;;19.07;17.07;;;;;;;;;;5074734;28;20488;-66
2022/05/01 05:16:58;;;;;;;19.07;15.30;;;;;;;;;;5074465;28;20892;-65
2022/05/01 05:19:24;;;;;;;15.97;14.47;;;;;;;;;;5074341;28;20902;-66
2022/05/01 05:21:50;;;;;;;18.43;15.37;;;;;;;;;;5074311;28;20385;-66
2022/05/01 05:24:16;;;;;;;15.57;14.17;;;;;;;;;;5074418;28;20473;-66
2022/05/01 05:26:42;;;;;;;17.40;15.60;;;;;;;;;;5074251;28;20369;-66
2022/05/01 05:29:08;;;;;;;16.13;14.63;;;;;;;;;;5074158;28;20414;-66
2022/05/01 05:31:34;;;;;;;17.23;15.63;;;;;;;;;;5074144;28;20414;-66
2022/05/01 05:34:00;;;;;;;21.60;16.40;;;;;;;;;;5074089;28;20489;-66
2022/05/01 05:36:26;;;;;;;19.07;16.27;;;;;;;;;;5074111;28;20427;-66
2022/05/01 05:38:52;;;;;;;17.70;16.00;;;;;;;;;;5073767;28;20429;-66
2022/05/01 05:41:18;;;;;;;19.63;17.47;;;;;;;;;;5072690;28;20437;-66
2022/05/01 05:43:44;;;;;;;18.97;17.03;;;;;;;;;;5073900;28;20437;-65
2022/05/01 05:46:10;;;;;;;19.17;15.87;;;;;;;;;;5073855;28;20409;-66
2022/05/01 05:48:37;;;;;;;55.13;39.40;;;;;;;;;;5074086;28;20831;-66
2022/05/01 05:51:06;;;;;;;20.30;18.20;;;;;;;;;;5073918;28;20441;-66
2022/05/01 05:53:32;;;;;;;16.63;15.20;;;;;;;;;;5073842;28;20410;-66
2022/05/01 05:55:59;;;;;;;17.43;15.77;;;;;;;;;;5073797;28;20493;-66
2022/05/01 05:58:25;;;;;;;16.60;15.07;;;;;;;;;;5073717;28;20804;-66
2022/05/01 06:00:51;;;;;;;17.90;16.17;;;;;;;;;;5073771;28;20401;-66
2022/05/01 06:03:19;;;;;;;17.53;15.07;;;;;;;;;;5073506;28;20465;-66
2022/05/01 06:05:45;;;;;;;16.67;15.07;;;;;;;;;;5073618;28;20445;-66
2022/05/01 06:08:11;;;;;;;16.43;14.80;;;;;;;;;;5073533;28;20381;-66
2022/05/01 06:10:38;;;;;;;17.53;15.30;;;;;;;;;;5073773;28;20472;-66
2022/05/01 06:13:04;;;;;;;17.90;16.10;;;;;;;;;;5073505;28;20398;-66
2022/05/01 06:15:31;;;;;;;19.40;15.60;;;;;;;;;;5073588;28;20406;-62
2022/05/01 06:17:57;;;;;;;20.33;15.40;;;;;;;;;;5073676;28;20509;-62
2022/05/01 06:20:23;;;;;;;17.07;15.23;;;;;;;;;;5073548;28;20766;-62
2022/05/01 06:22:52;;;;;;;15.47;14.17;;;;;;;;;;5073363;28;20485;-63
2022/05/01 06:25:18;;;;;;;17.60;15.10;;;;;;;;;;5073430;28;20406;-63
2022/05/01 06:27:44;;;;;;;17.33;15.57;;;;;;;;;;5073351;28;20406;-65
2022/05/01 06:30:11;;;;;;;16.10;14.60;;;;;;;;;;5072038;28;20441;-65
2022/05/01 06:32:40;;;;;;;16.67;14.90;;;;;;;;;;5073360;28;20783;-65
2022/05/01 06:35:07;;;;;;;19.40;15.67;;;;;;;;;;5073266;28;20445;-63
2022/05/01 06:37:37;;;;;;;69.57;51.83;;;;;;;;;;5073297;28;20467;-66
2022/05/01 06:40:03;;;;;;;34.40;29.50;;;;;;;;;;5072992;28;20457;-65
2022/05/01 06:42:30;;;;;;;16.90;15.30;;;;;;;;;;5073453;28;20406;-65
2022/05/01 06:44:55;;;;;;;17.93;15.80;;;;;;;;;;5072958;28;20465;-67
2022/05/01 06:47:21;;;;;;;17.60;15.57;;;;;;;;;;5073032;28;20413;-67
2022/05/01 06:49:47;;;;;;;18.57;16.87;;;;;;;;;;5073051;28;20410;-67
2022/05/01 06:52:13;;;;;;;17.53;15.80;;;;;;;;;;5073020;28;20410;-68
2022/05/01 06:54:39;;;;;;;17.97;16.20;;;;;;;;;;5073006;28;20410;-68
2022/05/01 06:57:06;;;;;;;17.57;15.87;;;;;;;;;;5072739;28;20892;-66
2022/05/01 06:59:32;;;;;;;18.07;16.30;;;;;;;;;;5072991;28;20406;-63
2022/05/01 07:01:58;;;;;;;19.23;17.27;;;;;;;;;;5071621;28;20449;-66
2022/05/01 07:04:24;;;;;;;19.43;16.43;;;;;;;;;;5073074;28;20564;-64
2022/05/01 07:06:50;;;;;;;29.10;26.03;;;;;;;;;;5072863;28;20409;-65
2022/05/01 07:09:16;;;;;;;27.03;23.60;;;;;;;;;;5072916;28;20885;-64
2022/05/01 07:11:42;;;;;;;19.17;17.30;;;;;;;;;;5072842;28;20405;-65
2022/05/01 07:14:08;;;;;;;18.37;16.57;;;;;;;;;;5073084;28;20426;-66
2022/05/01 07:16:34;;;;;;;17.87;16.17;;;;;;;;;;5072703;28;20414;-65
2022/05/01 07:19:00;;;;;;;17.40;15.70;;;;;;;;;;5071335;28;20434;-65
2022/05/01 07:21:26;;;;;;;18.40;16.70;;;;;;;;;;5075167;28;20406;-66
2022/05/01 07:23:52;;;;;;;18.23;16.53;;;;;;;;;;5076249;28;20494;-64
2022/05/01 07:26:18;;;;;;;23.07;18.07;;;;;;;;;;5076584;28;20398;-65
2022/05/01 07:28:44;;;;;;;19.30;17.40;;;;;;;;;;5076367;28;20754;-66
2022/05/01 07:31:10;;;;;;;21.47;18.10;;;;;;;;;;5076339;28;20409;-65
2022/05/01 07:33:36;;;;;;;58.47;40.53;;;;;;;;;;5076217;28;20417;-66
2022/05/01 07:36:02;;;;;;;33.60;26.07;;;;;;;;;;5076206;28;20394;-66
2022/05/01 07:38:28;;;;;;;26.57;20.20;;;;;;;;;;5076423;28;20402;-65
2022/05/01 07:40:54;;;;;;;26.10;20.40;;;;;;;;;;5076125;28;20514;-65
2022/05/01 07:43:20;;;;;;;27.27;21.27;;;;;;;;;;5076167;28;20450;-66
2022/05/01 07:45:46;;;;;;;28.50;20.17;;;;;;;;;;5076268;28;20901;-68
2022/05/01 07:48:12;;;;;;;35.93;20.90;;;;;;;;;;5076162;28;20445;-67
2022/05/01 07:50:38;;;;;;;25.27;20.60;;;;;;;;;;5076176;28;20799;-67
2022/05/01 07:53:04;;;;;;;24.10;20.47;;;;;;;;;;5076084;28;20421;-66
2022/05/01 07:55:30;;;;;;;26.20;19.20;;;;;;;;;;5075969;28;20422;-66
2022/05/01 07:57:56;;;;;;;25.27;19.70;;;;;;;;;;5076001;28;20410;-67
2022/05/01 08:00:22;;;;;;;24.30;20.10;;;;;;;;;;5075995;28;20493;-65
2022/05/01 08:05:33;;;;;;;24.70;19.70;;;;;;;;;;5075911;28;20456;-65
2022/05/01 08:07:59;;;;;;;27.17;19.90;;;;;;;;;;5075788;28;20406;-66
2022/05/01 08:10:25;;;;;;;24.40;19.60;;;;;;;;;;5075867;28;20916;-66
2022/05/01 08:12:51;;;;;;;30.10;20.60;;;;;;;;;;5075707;28;20402;-66
2022/05/01 08:15:18;;;;;;;23.33;19.27;;;;;;;;;;5075716;28;20409;-66
2022/05/01 08:17:47;;;;;;;29.87;21.37;;;;;;;;;;5075809;28;20473;-66
2022/05/01 08:23:03;;;;;;;26.73;20.80;;;;;;;;;;5075461;28;20402;-66
2022/05/01 08:25:29;;;;;;;33.97;22.00;;;;;;;;;;5075540;28;20407;-66
2022/05/01 08:27:55;;;;;;;36.70;22.53;;;;;;;;;;5075419;28;20394;-66
2022/05/01 08:30:21;;;;;;;30.30;20.67;;;;;;;;;;5075361;28;20413;-68
2022/05/01 08:32:47;;;;;;;33.57;22.07;;;;;;;;;;5073985;28;20417;-65
2022/05/01 08:35:14;;;;;;;29.70;21.97;;;;;;;;;;5075241;28;20417;-66
2022/05/01 08:37:40;;;;;;;28.43;21.60;;;;;;;;;;5075152;28;20938;-67
2022/05/01 08:40:07;;;;;;;30.07;22.67;;;;;;;;;;5075108;28;20956;-67
2022/05/01 08:42:35;;;;;;;28.17;21.03;;;;;;;;;;5075195;28;20395;-65
2022/05/01 08:45:02;;;;;;;28.03;19.47;;;;;;;;;;5075302;28;20473;-66
2022/05/01 08:47:33;;;;;;;29.53;20.90;;;;;;;;;;5074979;28;20410;-65
2022/05/01 08:50:00;;;;;;;32.57;22.30;;;;;;;;;;5073701;28;20484;-65
2022/05/01 08:52:27;;;;;;;25.00;19.30;;;;;;;;;;5074947;28;20410;-65
2022/05/01 08:54:54;;;;;;;28.00;20.43;;;;;;;;;;5074859;28;20402;-65
2022/05/01 08:57:24;;;;;;;29.53;20.53;;;;;;;;;;5075124;28;20410;-65
2022/05/01 08:59:53;;;;;;;29.30;20.40;;;;;;;;;;5074773;28;20425;-66
2022/05/01 09:02:19;;;;;;;28.10;20.50;;;;;;;;;;5073409;28;20437;-67
2022/05/01 09:04:46;;;;;;;28.00;21.57;;;;;;;;;;5074594;28;20465;-65
2022/05/01 09:07:12;;;;;;;27.40;21.13;;;;;;;;;;5074652;28;20410;-67
2022/05/01 09:09:38;;;;;;;25.00;20.50;;;;;;;;;;5074579;28;20455;-69
2022/05/01 09:14:50;;;;;;;23.90;20.40;;;;;;;;;;5074813;28;20423;-66
2022/05/01 09:17:17;;;;;;;26.00;19.83;;;;;;;;;;5074458;28;20413;-66
2022/05/01 09:19:50;;;;;;;28.17;21.50;;;;;;;;;;5074411;28;20903;-64
2022/05/01 09:22:16;;;;;;;26.03;19.37;;;;;;;;;;5074623;28;20414;-66
2022/05/01 09:24:42;;;;;;;24.50;19.30;;;;;;;;;;5074379;28;20476;-65
2022/05/01 09:27:25;;;;;;;25.73;19.40;;;;;;;;;;5074265;28;20395;-64
2022/05/01 09:30:06;;;;;;;23.67;17.77;;;;;;;;;;5074192;28;20938;-66
2022/05/01 09:32:39;;;;;;;22.30;18.37;;;;;;;;;;5074147;28;20426;-65
2022/05/01 09:35:06;;;;;;;22.27;17.73;;;;;;;;;;5074068;28;20461;-65
2022/05/01 09:37:32;;;;;;;23.00;18.30;;;;;;;;;;5074036;28;20437;-64
2022/05/01 09:39:58;;;;;;;27.57;19.47;;;;;;;;;;5073869;28;20461;-63
2022/05/01 09:42:25;;;;;;;24.03;18.53;;;;;;;;;;5073962;28;20501;-65
2022/05/01 09:45:06;;;;;;;22.60;17.13;;;;;;;;;;5073754;28;20469;-65
2022/05/01 09:47:36;;;;;;;25.13;19.10;;;;;;;;;;5074148;28;20454;-64
2022/05/01 09:50:04;;;;;;;25.97;19.93;;;;;;;;;;5073893;28;20402;-64
2022/05/01 09:52:50;;;;;;;23.80;17.63;;;;;;;;;;5073680;28;20418;-66
2022/05/01 09:55:16;;;;;;;20.80;16.30;;;;;;;;;;5066540;28;20422;-64
2022/05/01 09:57:42;;;;;;;21.50;17.73;;;;;;;;;;5073724;28;20449;-64
2022/05/01 10:00:08;;;;;;;22.40;16.50;;;;;;;;;;5074100;28;20412;-65
2022/05/01 10:02:34;;;;;;;19.50;15.70;;;;;;;;;;5073628;28;20489;-64
2022/05/01 10:05:06;;;;;;;22.70;16.70;;;;;;;;;;5073585;28;20555;-65
2022/05/01 10:07:35;;;;;;;17.70;15.30;;;;;;;;;;5073554;28;20791;-64
2022/05/01 10:10:02;;;;;;;18.00;15.80;;;;;;;;;;5073848;28;20500;-64
2022/05/01 10:12:28;;;;;;;20.40;16.80;;;;;;;;;;5073575;28;20439;-64
2022/05/01 10:14:55;;;;;;;18.83;16.27;;;;;;;;;;5073784;28;20439;-66
2022/05/01 10:17:21;;;;;;;23.80;16.90;;;;;;;;;;5073624;28;20450;-64
2022/05/01 10:19:48;;;;;;;18.87;16.90;;;;;;;;;;5073439;28;20937;-66
2022/05/01 10:22:14;;;;;;;22.17;17.50;;;;;;;;;;5073432;28;20757;-64
2022/05/01 10:24:40;;;;;;;21.23;17.93;;;;;;;;;;5073370;28;20469;-65
2022/05/01 10:27:10;;;;;;;22.33;17.90;;;;;;;;;;5073275;28;20405;-64
2022/05/01 10:29:36;;;;;;;17.80;15.40;;;;;;;;;;5073462;28;20407;-64
2022/05/01 10:32:24;;;;;;;19.83;15.57;;;;;;;;;;5073528;28;20448;-63
2022/05/01 10:34:53;;;;;;;22.10;16.10;;;;;;;;;;5073562;28;20807;-63
2022/05/01 10:37:35;;;;;;;19.33;15.93;;;;;;;;;;5073302;28;20900;-64
2022/05/01 10:40:02;;;;;;;19.00;17.07;;;;;;;;;;5073115;28;20985;-64
2022/05/01 10:42:42;;;;;;;19.30;15.10;;;;;;;;;;5073328;28;20423;-65
2022/05/01 10:45:23;;;;;;;17.50;15.50;;;;;;;;;;5073145;28;20478;-67
2022/05/01 10:47:51;;;;;;;23.23;17.60;;;;;;;;;;5073200;28;20411;-66
2022/05/01 10:50:21;;;;;;;21.17;15.23;;;;;;;;;;5073219;28;20973;-66
2022/05/01 10:53:06;;;;;;;23.50;16.43;;;;;;;;;;5073161;28;20409;-66
2022/05/01 10:55:42;;;;;;;19.97;15.90;;;;;;;;;;5074236;28;20872;-66
2022/05/01 10:58:18;;;;;;;21.10;16.97;;;;;;;;;;5077214;28;20416;-64
2022/05/01 11:00:46;;;;;;;22.67;16.43;;;;;;;;;;5077074;28;20397;-66
2022/05/01 11:03:22;;;;;;;19.50;15.10;;;;;;;;;;5077146;28;20467;-67
2022/05/01 11:05:52;;;;;;;23.50;17.10;;;;;;;;;;5076885;28;20408;-65
2022/05/01 11:08:24;;;;;;;19.43;17.10;;;;;;;;;;5076949;28;20764;-67
2022/05/01 11:10:51;;;;;;;20.80;16.43;;;;;;;;;;5076951;28;20816;-65
2022/05/01 11:13:18;;;;;;;20.50;16.30;;;;;;;;;;5076845;28;20409;-65
2022/05/01 11:15:49;;;;;;;16.83;15.03;;;;;;;;;;5077044;28;20404;-65
2022/05/01 11:18:16;;;;;;;18.40;16.23;;;;;;;;;;5076964;28;20428;-66
2022/05/01 11:20:43;;;;;;;22.83;16.50;;;;;;;;;;5076571;28;20406;-68
2022/05/01 11:23:29;;;;;;;17.67;14.50;;;;;;;;;;5076592;28;20551;-63
2022/05/01 11:26:14;;;;;;;17.43;14.30;;;;;;;;;;5076822;28;20550;-67
2022/05/01 11:28:44;;;;;;;23.93;16.30;;;;;;;;;;5076466;28;20411;-65
2022/05/01 11:31:28;;;;;;;24.10;15.90;;;;;;;;;;5076486;28;20400;-66
2022/05/01 11:34:27;;;;;;;18.90;14.57;;;;;;;;;;5088922;28;20428;-64
2022/05/01 11:37:01;;;;;;;16.50;14.77;;;;;;;;;;5059050;28;20430;-67
2022/05/01 11:39:46;;;;;;;16.87;14.03;;;;;;;;;;5073903;28;20472;-66
2022/05/01 11:42:25;;;;;;;16.33;13.67;;;;;;;;;;5074029;28;20500;-64
2022/05/01 11:44:51;;;;;;;19.87;14.87;;;;;;;;;;5073816;28;20915;-66
2022/05/01 11:47:21;;;;;;;17.80;14.87;;;;;;;;;;5076131;28;20415;-65
2022/05/01 11:49:47;;;;;;;22.10;15.13;;;;;;;;;;5076146;28;20875;-65
2022/05/01 11:52:13;;;;;;;16.80;14.77;;;;;;;;;;5076079;28;20403;-65
2022/05/01 11:54:47;;;;;;;15.37;13.77;;;;;;;;;;5076050;28;20399;-66
2022/05/01 12:02:56;;;;;;;16.77;13.77;;;;;;;;;;5075903;28;20457;-67
2022/05/01 12:05:21;;;;;;;19.90;13.80;;;;;;;;;;5076238;28;20745;-67
2022/05/01 12:07:53;;;;;;;17.80;13.50;;;;;;;;;;5073227;28;20442;-67
2022/05/01 12:10:19;;;;;;;21.30;14.77;;;;;;;;;;5073248;28;20416;-67
2022/05/01 12:12:45;;;;;;;17.93;15.27;;;;;;;;;;5073212;28;20421;-67
2022/05/01 12:15:11;;;;;;;17.00;14.20;;;;;;;;;;5072867;28;20511;-66
2022/05/01 12:17:40;;;;;;;16.40;13.20;;;;;;;;;;5072879;28;20422;-65
2022/05/01 12:20:07;;;;;;;14.07;12.57;;;;;;;;;;5073037;28;20428;-66
2022/05/01 12:22:39;;;;;;;14.87;13.17;;;;;;;;;;5073268;28;20484;-66
2022/05/01 12:25:10;;;;;;;13.77;12.13;;;;;;;;;;5073044;28;20817;-66
2022/05/01 12:27:40;;;;;;;15.10;13.50;;;;;;;;;;5073054;28;20447;-67
2022/05/01 12:30:07;;;;;;;14.70;13.03;;;;;;;;;;5073114;28;20410;-69
2022/05/01 12:32:33;;;;;;;19.57;12.53;;;;;;;;;;5075388;28;20411;-67
2022/05/01 12:35:00;;;;;;;12.73;11.73;;;;;;;;;;5072928;28;20502;-67
2022/05/01 12:37:32;;;;;;;14.90;13.37;;;;;;;;;;5072881;28;20890;-67
2022/05/01 12:39:59;;;;;;;13.53;12.17;;;;;;;;;;5070465;28;20503;-66
2022/05/01 12:45:24;;;;;;;15.20;12.87;;;;;;;;;;5072219;28;20492;-67
2022/05/01 12:47:51;;;;;;;13.68;12.27;;;;;;;;;;5071014;28;20410;-71
2022/05/01 12:50:21;;;;;;;13.03;11.67;;;;;;;;;;5071604;28;20186;-69
2022/05/01 12:52:48;;;;;;;14.27;11.20;;;;;;;;;;5072180;28;20780;-69
2022/05/01 12:55:17;;;;;;;13.00;11.60;;;;;;;;;;5071762;28;20427;-70
2022/05/01 12:58:03;;;;;;;12.10;10.77;;;;;;;;;;5071778;28;20427;-68
2022/05/01 13:00:40;;;;;;;13.90;10.87;;;;;;;;;;5071924;28;20459;-68
2022/05/01 13:03:24;;;;;;;12.07;10.87;;;;;;;;;;5071265;28;20432;-66
2022/05/01 13:05:58;;;;;;;11.53;10.47;;;;;;;;;;5071731;28;20555;-70
2022/05/01 13:08:24;;;;;;;13.40;12.00;;;;;;;;;;5070993;28;20794;-70
2022/05/01 13:11:09;;;;;;;12.47;11.20;;;;;;;;;;5070276;28;20474;-68
2022/05/01 13:13:49;;;;;;;10.50;9.70;;;;;;;;;;5070999;28;20477;-66
2022/05/01 13:16:16;;;;;;;10.27;9.47;;;;;;;;;;5072136;28;20810;-65
2022/05/01 13:18:42;;;;;;;11.90;10.70;;;;;;;;;;5070963;28;20425;-65
2022/05/01 13:21:09;;;;;;;11.63;10.43;;;;;;;;;;5069596;28;20420;-66
2022/05/01 13:23:35;;;;;;;11.10;9.90;;;;;;;;;;5071654;28;20472;-65
2022/05/01 13:26:03;;;;;;;12.37;11.07;;;;;;;;;;5071642;28;20429;-66
2022/05/01 13:28:29;;;;;;;12.03;10.93;;;;;;;;;;5071584;28;20404;-64
2022/05/01 13:30:56;;;;;;;12.27;11.13;;;;;;;;;;5071490;28;20445;-67
2022/05/01 13:33:25;;;;;;;10.50;9.37;;;;;;;;;;5070052;28;20428;-66
2022/05/01 13:35:51;;;;;;;14.90;11.30;;;;;;;;;;5071502;28;20420;-64
2022/05/01 13:38:18;;;;;;;11.47;10.37;;;;;;;;;;5071555;28;20423;-65
2022/05/01 13:46:13;;;;;;;10.43;9.53;;;;;;;;;;5071417;28;20402;-65
2022/05/01 13:48:39;;;;;;;14.20;11.10;;;;;;;;;;5070810;28;20434;-65
2022/05/01 13:51:05;;;;;;;10.60;9.70;;;;;;;;;;5071238;28;20411;-66
2022/05/01 13:53:31;;;;;;;10.93;9.80;;;;;;;;;;5071008;28;20496;-66
2022/05/01 13:55:57;;;;;;;13.70;10.30;;;;;;;;;;5070250;28;20448;-66
2022/05/01 13:58:24;;;;;;;11.00;9.87;;;;;;;;;;5069005;28;20970;-66
2022/05/01 14:00:50;;;;;;;12.83;10.10;;;;;;;;;;5070840;28;20428;-66
2022/05/01 14:03:16;;;;;;;11.23;9.27;;;;;;;;;;5070856;28;20495;-66
2022/05/01 14:05:43;;;;;;;23.57;19.80;;;;;;;;;;5069467;28;20820;-66
2022/05/01 14:08:09;;;;;;;10.17;9.27;;;;;;;;;;5068299;28;20448;-68
2022/05/01 14:10:36;;;;;;;11.77;10.63;;;;;;;;;;5070712;28;20427;-67
2022/05/01 14:13:07;;;;;;;10.63;9.63;;;;;;;;;;5071112;28;20412;-66
2022/05/01 14:15:34;;;;;;;10.10;9.20;;;;;;;;;;5071103;28;20764;-65
2022/05/01 14:18:00;;;;;;;10.30;9.30;;;;;;;;;;5071018;28;20433;-65
2022/05/01 14:20:26;;;;;;;9.40;8.50;;;;;;;;;;5070433;28;20411;-67
2022/05/01 14:22:54;;;;;;;9.03;8.17;;;;;;;;;;5070794;28;20481;-66
2022/05/01 14:25:19;;;;;;;10.10;9.20;;;;;;;;;;5070576;28;20533;-65
2022/05/01 14:27:45;;;;;;;18.33;16.63;;;;;;;;;;5070691;28;20403;-67
2022/05/01 14:30:13;;;;;;;9.53;8.63;;;;;;;;;;5070275;28;20507;-65
2022/05/01 14:32:51;;;;;;;9.90;8.87;;;;;;;;;;5070394;28;20422;-64
2022/05/01 14:35:21;;;;;;;8.43;7.87;;;;;;;;;;5070883;28;20417;-65
2022/05/01 14:37:56;;;;;;;11.83;8.13;;;;;;;;;;5070915;28;20413;-67
2022/05/01 14:40:26;;;;;;;9.50;8.17;;;;;;;;;;5070272;28;20472;-70
2022/05/01 14:42:53;;;;;;;7.93;7.27;;;;;;;;;;5070515;28;20420;-66
2022/05/01 14:45:22;;;;;;;8.33;7.67;;;;;;;;;;5068256;28;20480;-67
2022/05/01 14:48:06;;;;;;;9.23;8.33;;;;;;;;;;5070661;28;20431;-67
2022/05/01 14:50:34;;;;;;;10.93;8.33;;;;;;;;;;5070580;28;20406;-67
2022/05/01 14:53:00;;;;;;;8.83;8.20;;;;;;;;;;5070487;28;20561;-65
2022/05/01 14:55:26;;;;;;;8.43;7.80;;;;;;;;;;5070219;28;20456;-65
2022/05/01 14:57:56;;;;;;;9.50;7.93;;;;;;;;;;5070054;28;20423;-67
2022/05/01 15:08:42;;;;;;;7.70;7.10;;;;;;;;;;5070325;28;20397;-67